sensor_id;sensor_type;location;lat;lon;timestamp;temperature;humidity
72576;DHT22;60613;48.658;2.328;2023-04-10T07:10:07;20.20;36.80
72576;DHT22;60613;48.658;2.328;2023-04-10T07:12:33;20.10;36.90
72576;DHT22;60613;48.658;2.328;2023-04-10T07:14:59;20.10;36.90
72576;DHT22;60613;48.658;2.328;2023-04-10T07:17:24;20.10;37.10
72576;DHT22;60613;48.658;2.328;2023-04-10T07:19:50;20.20;37.50
72576;DHT22;60613;48.658;2.328;2023-04-10T07:22:16;20.30;37.60
72576;DHT22;60613;48.658;2.328;2023-04-10T07:24:42;20.50;37.50
72576;DHT22;60613;48.658;2.328;2023-04-10T07:27:07;20.60;37.00
72576;DHT22;60613;48.658;2.328;2023-04-10T07:29:33;20.70;37.00
72576;DHT22;60613;48.658;2.328;2023-04-10T07:31:58;20.80;38.20
72576;DHT22;60613;48.658;2.328;2023-04-10T07:34:24;20.90;37.60
72576;DHT22;60613;48.658;2.328;2023-04-10T07:36:50;21.00;37.30
72576;DHT22;60613;48.658;2.328;2023-04-10T07:39:16;21.10;37.20
72576;DHT22;60613;48.658;2.328;2023-04-10T07:41:42;21.20;37.60
72576;DHT22;60613;48.658;2.328;2023-04-10T07:44:08;21.30;38.50
72576;DHT22;60613;48.658;2.328;2023-04-10T07:46:33;21.40;37.90
72576;DHT22;60613;48.658;2.328;2023-04-10T07:48:59;21.50;37.20
72576;DHT22;60613;48.658;2.328;2023-04-10T07:51:25;21.50;37.10
72576;DHT22;60613;48.658;2.328;2023-04-10T07:53:51;21.60;37.00
72576;DHT22;60613;48.658;2.328;2023-04-10T07:56:18;21.70;37.10
72576;DHT22;60613;48.658;2.328;2023-04-10T07:58:44;21.80;37.80
72576;DHT22;60613;48.658;2.328;2023-04-10T08:01:10;21.80;37.20
72576;DHT22;60613;48.658;2.328;2023-04-10T08:03:38;21.80;38.10
72576;DHT22;60613;48.658;2.328;2023-04-10T08:06:04;21.80;38.60
72576;DHT22;60613;48.658;2.328;2023-04-10T08:08:29;21.90;38.60
72576;DHT22;60613;48.658;2.328;2023-04-10T08:10:55;21.80;39.90
72576;DHT22;60613;48.658;2.328;2023-04-10T08:13:21;21.90;38.20
72576;DHT22;60613;48.658;2.328;2023-04-10T08:15:46;21.90;38.20
72576;DHT22;60613;48.658;2.328;2023-04-10T08:18:12;22.00;38.20
72576;DHT22;60613;48.658;2.328;2023-04-10T08:20:37;22.00;39.00
72576;DHT22;60613;48.658;2.328;2023-04-10T08:23:03;22.00;39.00
72576;DHT22;60613;48.658;2.328;2023-04-10T08:25:29;22.00;39.00
72576;DHT22;60613;48.658;2.328;2023-04-10T08:27:55;22.00;38.70
72576;DHT22;60613;48.658;2.328;2023-04-10T08:30:21;22.00;38.30
72576;DHT22;60613;48.658;2.328;2023-04-10T08:32:46;22.00;37.80
72576;DHT22;60613;48.658;2.328;2023-04-10T08:35:12;22.00;38.00
72576;DHT22;60613;48.658;2.328;2023-04-10T08:37:37;22.00;37.80
72576;DHT22;60613;48.658;2.328;2023-04-10T08:40:03;22.00;37.70
72576;DHT22;60613;48.658;2.328;2023-04-10T08:42:29;21.90;38.00
72576;DHT22;60613;48.658;2.328;2023-04-10T08:44:55;21.90;38.10
72576;DHT22;60613;48.658;2.328;2023-04-10T08:47:23;22.00;38.20
72576;DHT22;60613;48.658;2.328;2023-04-10T08:50:03;22.00;38.10
72576;DHT22;60613;48.658;2.328;2023-04-10T08:52:33;22.10;37.90
72576;DHT22;60613;48.658;2.328;2023-04-10T08:55:05;22.20;37.80
72576;DHT22;60613;48.658;2.328;2023-04-10T08:57:32;22.20;38.90
72576;DHT22;60613;48.658;2.328;2023-04-10T08:59:58;22.30;37.50
72576;DHT22;60613;48.658;2.328;2023-04-10T09:02:23;22.30;37.60
72576;DHT22;60613;48.658;2.328;2023-04-10T09:04:50;22.30;37.80
72576;DHT22;60613;48.658;2.328;2023-04-10T09:07:17;22.20;37.90
72576;DHT22;60613;48.658;2.328;2023-04-10T09:09:46;22.20;38.10
72576;DHT22;60613;48.658;2.328;2023-04-10T09:12:12;22.20;38.20
72576;DHT22;60613;48.658;2.328;2023-04-10T09:14:40;22.20;38.20
72576;DHT22;60613;48.658;2.328;2023-04-10T09:17:22;22.10;38.30
72576;DHT22;60613;48.658;2.328;2023-04-10T09:19:53;22.10;38.30
72576;DHT22;60613;48.658;2.328;2023-04-10T09:22:32;22.10;38.30
72576;DHT22;60613;48.658;2.328;2023-04-10T09:24:59;22.20;38.20
72576;DHT22;60613;48.658;2.328;2023-04-10T09:27:33;22.10;38.10
72576;DHT22;60613;48.658;2.328;2023-04-10T09:30:07;22.10;38.10
72576;DHT22;60613;48.658;2.328;2023-04-10T09:32:39;22.10;38.20
72576;DHT22;60613;48.658;2.328;2023-04-10T09:35:07;22.10;38.20
72576;DHT22;60613;48.658;2.328;2023-04-10T09:37:34;22.10;38.10
72576;DHT22;60613;48.658;2.328;2023-04-10T09:40:01;22.10;38.10
72576;DHT22;60613;48.658;2.328;2023-04-10T09:42:34;22.10;38.10
72576;DHT22;60613;48.658;2.328;2023-04-10T09:45:00;22.20;37.80
72576;DHT22;60613;48.658;2.328;2023-04-10T09:47:26;22.30;37.60
72576;DHT22;60613;48.658;2.328;2023-04-10T09:49:57;22.40;37.20
72576;DHT22;60613;48.658;2.328;2023-04-10T09:52:43;22.50;37.10
72576;DHT22;60613;48.658;2.328;2023-04-10T09:55:16;22.50;36.90
72576;DHT22;60613;48.658;2.328;2023-04-10T09:57:42;22.60;36.80
72576;DHT22;60613;48.658;2.328;2023-04-10T10:00:09;22.50;36.40
72576;DHT22;60613;48.658;2.328;2023-04-10T10:02:36;22.50;36.40
72576;DHT22;60613;48.658;2.328;2023-04-10T10:05:06;22.50;36.30
72576;DHT22;60613;48.658;2.328;2023-04-10T10:07:32;22.60;36.10
72576;DHT22;60613;48.658;2.328;2023-04-10T10:09:58;22.50;36.20
72576;DHT22;60613;48.658;2.328;2023-04-10T10:12:44;22.50;36.20
72576;DHT22;60613;48.658;2.328;2023-04-10T10:15:35;22.50;36.10
72576;DHT22;60613;48.658;2.328;2023-04-10T10:20:35;22.50;36.30
72576;DHT22;60613;48.658;2.328;2023-04-10T10:23:05;22.50;36.30
72576;DHT22;60613;48.658;2.328;2023-04-10T10:25:33;22.40;36.20
72576;DHT22;60613;48.658;2.328;2023-04-10T10:28:02;22.50;36.30
72576;DHT22;60613;48.658;2.328;2023-04-10T10:30:31;22.50;36.30
72576;DHT22;60613;48.658;2.328;2023-04-10T10:32:58;22.40;36.30
72576;DHT22;60613;48.658;2.328;2023-04-10T10:35:26;22.40;36.30
72576;DHT22;60613;48.658;2.328;2023-04-10T10:37:52;22.40;36.20
72576;DHT22;60613;48.658;2.328;2023-04-10T10:40:28;22.40;36.50
72576;DHT22;60613;48.658;2.328;2023-04-10T10:46:08;22.40;36.10
72576;DHT22;60613;48.658;2.328;2023-04-10T10:48:35;22.40;36.10
72576;DHT22;60613;48.658;2.328;2023-04-10T10:51:01;22.40;36.20
72576;DHT22;60613;48.658;2.328;2023-04-10T10:53:39;22.30;36.20
72576;DHT22;60613;48.658;2.328;2023-04-10T10:58:50;22.30;36.60
72576;DHT22;60613;48.658;2.328;2023-04-10T11:01:18;22.30;36.70
72576;DHT22;60613;48.658;2.328;2023-04-10T11:03:45;22.20;36.60
72576;DHT22;60613;48.658;2.328;2023-04-10T11:06:18;22.30;36.70
72576;DHT22;60613;48.658;2.328;2023-04-10T11:08:51;22.20;36.70
72576;DHT22;60613;48.658;2.328;2023-04-10T11:11:24;22.30;36.80
72576;DHT22;60613;48.658;2.328;2023-04-10T11:16:40;22.30;36.80
72576;DHT22;60613;48.658;2.328;2023-04-10T11:19:09;22.20;36.90
72576;DHT22;60613;48.658;2.328;2023-04-10T11:22:04;22.20;36.90
72576;DHT22;60613;48.658;2.328;2023-04-10T11:27:37;22.20;37.20
72576;DHT22;60613;48.658;2.328;2023-04-10T11:30:33;22.20;37.50
72576;DHT22;60613;48.658;2.328;2023-04-10T11:32:59;22.20;37.60
72576;DHT22;60613;48.658;2.328;2023-04-10T11:35:26;22.20;37.80
72576;DHT22;60613;48.658;2.328;2023-04-10T11:38:07;22.30;37.90
72576;DHT22;60613;48.658;2.328;2023-04-10T11:40:33;22.30;37.80
72576;DHT22;60613;48.658;2.328;2023-04-10T11:43:12;22.30;38.00
72576;DHT22;60613;48.658;2.328;2023-04-10T11:45:38;22.30;38.00
72576;DHT22;60613;48.658;2.328;2023-04-10T11:48:03;22.30;38.10
72576;DHT22;60613;48.658;2.328;2023-04-10T11:50:29;22.30;38.00
72576;DHT22;60613;48.658;2.328;2023-04-10T11:52:56;22.30;38.00
72576;DHT22;60613;48.658;2.328;2023-04-10T11:55:38;22.30;38.00
72576;DHT22;60613;48.658;2.328;2023-04-10T11:58:03;22.30;38.10
72576;DHT22;60613;48.658;2.328;2023-04-10T12:00:29;22.30;38.10
72576;DHT22;60613;48.658;2.328;2023-04-10T12:02:55;22.30;38.20
72576;DHT22;60613;48.658;2.328;2023-04-10T12:05:20;22.20;38.10
72576;DHT22;60613;48.658;2.328;2023-04-10T12:07:48;22.20;38.20
72576;DHT22;60613;48.658;2.328;2023-04-10T12:10:14;22.20;38.20
72576;DHT22;60613;48.658;2.328;2023-04-10T12:12:40;22.20;38.10
72576;DHT22;60613;48.658;2.328;2023-04-10T12:15:28;22.20;38.00
72576;DHT22;60613;48.658;2.328;2023-04-10T12:17:55;22.20;38.10
72576;DHT22;60613;48.658;2.328;2023-04-10T12:20:21;22.20;38.10
72576;DHT22;60613;48.658;2.328;2023-04-10T12:22:51;22.20;37.80
72576;DHT22;60613;48.658;2.328;2023-04-10T12:25:20;22.30;37.80
72576;DHT22;60613;48.658;2.328;2023-04-10T12:27:48;22.30;37.90
72576;DHT22;60613;48.658;2.328;2023-04-10T12:30:15;22.30;37.60
72576;DHT22;60613;48.658;2.328;2023-04-10T12:32:52;22.20;37.60
72576;DHT22;60613;48.658;2.328;2023-04-10T12:35:17;22.20;37.80
72576;DHT22;60613;48.658;2.328;2023-04-10T12:37:50;22.20;37.80
72576;DHT22;60613;48.658;2.328;2023-04-10T12:40:17;22.30;37.80
72576;DHT22;60613;48.658;2.328;2023-04-10T12:42:43;22.20;37.70
72576;DHT22;60613;48.658;2.328;2023-04-10T12:45:09;22.30;37.80
72576;DHT22;60613;48.658;2.328;2023-04-10T12:47:45;22.20;37.80
72576;DHT22;60613;48.658;2.328;2023-04-10T12:50:16;22.20;37.80
72576;DHT22;60613;48.658;2.328;2023-04-10T12:52:43;22.20;37.80
72576;DHT22;60613;48.658;2.328;2023-04-10T12:55:19;22.30;37.90
72576;DHT22;60613;48.658;2.328;2023-04-10T12:57:48;22.40;37.70
72576;DHT22;60613;48.658;2.328;2023-04-10T13:00:19;22.30;37.60
72576;DHT22;60613;48.658;2.328;2023-04-10T13:02:46;22.30;37.80
72576;DHT22;60613;48.658;2.328;2023-04-10T13:05:12;22.30;37.80
72576;DHT22;60613;48.658;2.328;2023-04-10T13:07:38;22.30;37.80
72576;DHT22;60613;48.658;2.328;2023-04-10T13:10:05;22.30;37.60
72576;DHT22;60613;48.658;2.328;2023-04-10T13:12:31;22.20;37.60
72576;DHT22;60613;48.658;2.328;2023-04-10T13:14:59;22.30;37.60
72576;DHT22;60613;48.658;2.328;2023-04-10T13:17:25;22.30;37.60
72576;DHT22;60613;48.658;2.328;2023-04-10T13:19:51;22.40;37.50
72576;DHT22;60613;48.658;2.328;2023-04-10T13:22:17;22.40;37.50
72576;DHT22;60613;48.658;2.328;2023-04-10T13:24:43;22.40;37.50
72576;DHT22;60613;48.658;2.328;2023-04-10T13:27:09;22.40;37.20
72576;DHT22;60613;48.658;2.328;2023-04-10T13:29:37;22.50;37.30
72576;DHT22;60613;48.658;2.328;2023-04-10T13:32:02;22.40;37.50
72576;DHT22;60613;48.658;2.328;2023-04-10T13:34:33;22.40;37.40
72576;DHT22;60613;48.658;2.328;2023-04-10T13:36:59;22.40;37.50
72576;DHT22;60613;48.658;2.328;2023-04-10T13:39:26;22.40;37.50
72576;DHT22;60613;48.658;2.328;2023-04-10T13:41:52;22.40;37.70
72576;DHT22;60613;48.658;2.328;2023-04-10T13:44:18;22.40;38.70
72576;DHT22;60613;48.658;2.328;2023-04-10T13:46:43;22.40;37.90
72576;DHT22;60613;48.658;2.328;2023-04-10T13:49:09;22.40;37.60
72576;DHT22;60613;48.658;2.328;2023-04-10T13:51:34;22.50;37.60
72576;DHT22;60613;48.658;2.328;2023-04-10T13:54:01;22.40;37.60
72576;DHT22;60613;48.658;2.328;2023-04-10T13:56:29;22.40;37.70
72576;DHT22;60613;48.658;2.328;2023-04-10T13:58:54;22.40;37.70
72576;DHT22;60613;48.658;2.328;2023-04-10T14:01:20;22.40;37.60
72576;DHT22;60613;48.658;2.328;2023-04-10T14:03:46;22.30;37.40
72576;DHT22;60613;48.658;2.328;2023-04-10T14:06:11;22.40;37.50
72576;DHT22;60613;48.658;2.328;2023-04-10T14:08:38;22.30;37.50
72576;DHT22;60613;48.658;2.328;2023-04-10T14:11:04;22.30;37.50
72576;DHT22;60613;48.658;2.328;2023-04-10T14:13:30;22.30;37.60
72576;DHT22;60613;48.658;2.328;2023-04-10T14:15:55;22.30;37.60
72576;DHT22;60613;48.658;2.328;2023-04-10T14:18:21;22.20;37.50
72576;DHT22;60613;48.658;2.328;2023-04-10T14:20:46;22.30;37.60
72576;DHT22;60613;48.658;2.328;2023-04-10T14:23:12;22.30;37.40
72576;DHT22;60613;48.658;2.328;2023-04-10T14:25:46;22.30;37.30
72576;DHT22;60613;48.658;2.328;2023-04-10T14:28:11;22.30;37.60
72576;DHT22;60613;48.658;2.328;2023-04-10T14:30:44;22.30;37.50
72576;DHT22;60613;48.658;2.328;2023-04-10T14:33:11;22.30;37.40
72576;DHT22;60613;48.658;2.328;2023-04-10T14:35:37;22.30;37.40
72576;DHT22;60613;48.658;2.328;2023-04-10T14:38:02;22.30;37.30
72576;DHT22;60613;48.658;2.328;2023-04-10T14:40:28;22.30;37.80
72576;DHT22;60613;48.658;2.328;2023-04-10T14:42:53;22.30;37.40
72576;DHT22;60613;48.658;2.328;2023-04-10T14:45:19;22.30;37.80
72576;DHT22;60613;48.658;2.328;2023-04-10T14:47:45;22.20;37.80
72576;DHT22;60613;48.658;2.328;2023-04-10T14:50:11;22.20;37.90
72576;DHT22;60613;48.658;2.328;2023-04-10T14:52:37;22.30;37.80
72576;DHT22;60613;48.658;2.328;2023-04-10T14:55:03;22.40;39.00
72576;DHT22;60613;48.658;2.328;2023-04-10T14:57:29;22.40;37.70
72576;DHT22;60613;48.658;2.328;2023-04-10T14:59:55;22.40;37.90
72576;DHT22;60613;48.658;2.328;2023-04-10T15:02:20;22.40;37.90
72576;DHT22;60613;48.658;2.328;2023-04-10T15:04:46;22.40;39.00
72576;DHT22;60613;48.658;2.328;2023-04-10T15:07:12;22.40;37.90
72576;DHT22;60613;48.658;2.328;2023-04-10T15:09:38;22.40;37.80
72576;DHT22;60613;48.658;2.328;2023-04-10T15:12:05;22.40;37.90
72576;DHT22;60613;48.658;2.328;2023-04-10T15:14:31;22.40;37.90
72576;DHT22;60613;48.658;2.328;2023-04-10T15:16:57;22.40;37.80
72576;DHT22;60613;48.658;2.328;2023-04-10T15:19:22;22.40;37.90
72576;DHT22;60613;48.658;2.328;2023-04-10T15:21:48;22.40;37.90
72576;DHT22;60613;48.658;2.328;2023-04-10T15:24:14;22.40;38.00
72576;DHT22;60613;48.658;2.328;2023-04-10T15:26:43;22.30;37.80
72576;DHT22;60613;48.658;2.328;2023-04-10T15:29:10;22.30;38.00
72576;DHT22;60613;48.658;2.328;2023-04-10T15:31:35;22.30;38.10
72576;DHT22;60613;48.658;2.328;2023-04-10T15:34:01;22.30;38.10
72576;DHT22;60613;48.658;2.328;2023-04-10T15:36:26;22.30;38.10
72576;DHT22;60613;48.658;2.328;2023-04-10T15:38:52;22.40;37.90
72576;DHT22;60613;48.658;2.328;2023-04-10T15:41:18;22.30;38.10
72576;DHT22;60613;48.658;2.328;2023-04-10T15:43:44;22.30;39.50
72576;DHT22;60613;48.658;2.328;2023-04-10T15:46:10;22.30;38.40
72576;DHT22;60613;48.658;2.328;2023-04-10T15:48:36;22.30;38.20
72576;DHT22;60613;48.658;2.328;2023-04-10T15:51:05;22.30;38.40
72576;DHT22;60613;48.658;2.328;2023-04-10T15:53:31;22.20;38.40
72576;DHT22;60613;48.658;2.328;2023-04-10T15:55:56;22.30;38.50
72576;DHT22;60613;48.658;2.328;2023-04-10T15:58:22;22.20;38.40
72576;DHT22;60613;48.658;2.328;2023-04-10T16:00:48;22.20;38.60
72576;DHT22;60613;48.658;2.328;2023-04-10T16:03:13;22.20;38.60
72576;DHT22;60613;48.658;2.328;2023-04-10T16:05:39;22.20;38.80
72576;DHT22;60613;48.658;2.328;2023-04-10T16:08:05;22.20;38.80
72576;DHT22;60613;48.658;2.328;2023-04-10T16:10:30;22.20;39.00
72576;DHT22;60613;48.658;2.328;2023-04-10T16:12:56;22.10;39.10
72576;DHT22;60613;48.658;2.328;2023-04-10T16:15:27;22.10;39.30
72576;DHT22;60613;48.658;2.328;2023-04-10T16:17:53;22.20;39.30
72576;DHT22;60613;48.658;2.328;2023-04-10T16:20:18;22.20;39.00
72576;DHT22;60613;48.658;2.328;2023-04-10T16:22:44;22.30;39.10
72576;DHT22;60613;48.658;2.328;2023-04-10T16:25:09;22.30;38.90
72576;DHT22;60613;48.658;2.328;2023-04-10T16:27:35;22.40;38.80
72576;DHT22;60613;48.658;2.328;2023-04-10T16:30:01;22.60;38.50
72576;DHT22;60613;48.658;2.328;2023-04-10T16:32:26;22.70;38.10
72576;DHT22;60613;48.658;2.328;2023-04-10T16:34:52;22.80;38.10
72576;DHT22;60613;48.658;2.328;2023-04-10T16:37:17;22.90;38.20
72576;DHT22;60613;48.658;2.328;2023-04-10T16:39:43;22.90;37.90
72576;DHT22;60613;48.658;2.328;2023-04-10T16:42:09;22.90;38.10
72576;DHT22;60613;48.658;2.328;2023-04-10T16:44:35;22.80;37.80
72576;DHT22;60613;48.658;2.328;2023-04-10T16:47:00;22.90;37.90
72576;DHT22;60613;48.658;2.328;2023-04-10T16:49:26;22.90;37.90
72576;DHT22;60613;48.658;2.328;2023-04-10T16:51:51;22.90;37.70
72576;DHT22;60613;48.658;2.328;2023-04-10T16:54:17;22.90;37.90
72576;DHT22;60613;48.658;2.328;2023-04-10T16:56:43;22.90;38.20
72576;DHT22;60613;48.658;2.328;2023-04-10T16:59:08;22.80;38.00
72576;DHT22;60613;48.658;2.328;2023-04-10T17:01:34;22.80;38.10
72576;DHT22;60613;48.658;2.328;2023-04-10T17:04:04;22.90;38.20
72576;DHT22;60613;48.658;2.328;2023-04-10T17:06:30;22.80;38.20
72576;DHT22;60613;48.658;2.328;2023-04-10T17:08:56;22.90;38.10
72576;DHT22;60613;48.658;2.328;2023-04-10T17:11:21;22.90;38.20
72576;DHT22;60613;48.658;2.328;2023-04-10T17:13:47;22.90;38.10
72576;DHT22;60613;48.658;2.328;2023-04-10T17:16:13;22.90;38.10
72576;DHT22;60613;48.658;2.328;2023-04-10T17:18:39;22.80;38.10
72576;DHT22;60613;48.658;2.328;2023-04-10T17:21:12;22.80;38.30
72576;DHT22;60613;48.658;2.328;2023-04-10T17:23:38;22.70;38.40
72576;DHT22;60613;48.658;2.328;2023-04-10T17:26:04;22.50;38.60
72576;DHT22;60613;48.658;2.328;2023-04-10T17:28:32;22.40;38.90
72576;DHT22;60613;48.658;2.328;2023-04-10T17:30:58;22.40;39.10
72576;DHT22;60613;48.658;2.328;2023-04-10T17:33:23;22.30;39.30
72576;DHT22;60613;48.658;2.328;2023-04-10T17:35:52;22.30;39.40
72576;DHT22;60613;48.658;2.328;2023-04-10T17:38:17;22.20;39.50
72576;DHT22;60613;48.658;2.328;2023-04-10T17:40:43;22.20;39.70
72576;DHT22;60613;48.658;2.328;2023-04-10T17:43:09;22.10;39.90
72576;DHT22;60613;48.658;2.328;2023-04-10T17:45:38;22.10;39.80
72576;DHT22;60613;48.658;2.328;2023-04-10T17:48:04;22.10;40.00
72576;DHT22;60613;48.658;2.328;2023-04-10T17:50:30;22.10;40.00
72576;DHT22;60613;48.658;2.328;2023-04-10T17:52:56;22.00;40.00
72576;DHT22;60613;48.658;2.328;2023-04-10T17:55:23;22.10;40.10
72576;DHT22;60613;48.658;2.328;2023-04-10T17:57:49;22.10;40.30
72576;DHT22;60613;48.658;2.328;2023-04-10T18:00:15;22.00;40.20
72576;DHT22;60613;48.658;2.328;2023-04-10T18:02:43;22.00;40.10
72576;DHT22;60613;48.658;2.328;2023-04-10T18:05:09;22.00;40.30
72576;DHT22;60613;48.658;2.328;2023-04-10T18:07:35;22.00;40.30
72576;DHT22;60613;48.658;2.328;2023-04-10T18:10:01;21.90;40.30
72576;DHT22;60613;48.658;2.328;2023-04-10T18:12:27;21.90;40.40
72576;DHT22;60613;48.658;2.328;2023-04-10T18:14:52;21.90;40.30
72576;DHT22;60613;48.658;2.328;2023-04-10T18:17:18;21.90;40.40
72576;DHT22;60613;48.658;2.328;2023-04-10T18:19:44;21.90;40.50
72576;DHT22;60613;48.658;2.328;2023-04-10T18:22:09;21.90;40.60
72576;DHT22;60613;48.658;2.328;2023-04-10T18:24:35;21.90;40.60
72576;DHT22;60613;48.658;2.328;2023-04-10T18:27:00;21.90;40.60
72576;DHT22;60613;48.658;2.328;2023-04-10T18:29:27;21.90;40.60
72576;DHT22;60613;48.658;2.328;2023-04-10T18:31:54;21.90;40.70
72576;DHT22;60613;48.658;2.328;2023-04-10T18:34:20;21.90;40.70
72576;DHT22;60613;48.658;2.328;2023-04-10T18:36:45;21.90;40.60
72576;DHT22;60613;48.658;2.328;2023-04-10T18:39:11;21.90;40.90
72576;DHT22;60613;48.658;2.328;2023-04-10T18:41:37;21.90;40.90
72576;DHT22;60613;48.658;2.328;2023-04-10T18:44:03;21.90;41.00
72576;DHT22;60613;48.658;2.328;2023-04-10T18:46:28;21.90;41.10
72576;DHT22;60613;48.658;2.328;2023-04-10T18:48:55;21.90;41.10
72576;DHT22;60613;48.658;2.328;2023-04-10T18:51:21;21.90;40.80
72576;DHT22;60613;48.658;2.328;2023-04-10T18:53:47;21.90;40.90
72576;DHT22;60613;48.658;2.328;2023-04-10T18:56:13;21.90;41.00
72576;DHT22;60613;48.658;2.328;2023-04-10T18:58:39;21.90;41.00
